Map

Track Data

SID SEASON NUMBER BASIN SUBBASIN NAME ISO_TIME NATURE LAT LON WMO_WIND WMO_PRES WMO_AGENCY TRACK_TYPE DIST2LAND LANDFALL IFLAG USA_AGENCY USA_ATCF_ID USA_LAT USA_LON USA_RECORD USA_STATUS USA_WIND USA_PRES USA_SSHS USA_R34_NE USA_R34_SE USA_R34_SW USA_R34_NW USA_R50_NE USA_R50_SE USA_R50_SW USA_R50_NW USA_R64_NE USA_R64_SE USA_R64_SW USA_R64_NW USA_POCI USA_ROCI USA_RMW USA_EYE TOKYO_LAT TOKYO_LON TOKYO_GRADE TOKYO_WIND TOKYO_PRES TOKYO_R50_DIR TOKYO_R50_LONG TOKYO_R50_SHORT TOKYO_R30_DIR TOKYO_R30_LONG TOKYO_R30_SHORT TOKYO_LAND CMA_LAT CMA_LON CMA_CAT CMA_WIND CMA_PRES HKO_LAT HKO_LON HKO_CAT HKO_WIND HKO_PRES NEWDELHI_LAT NEWDELHI_LON NEWDELHI_GRADE NEWDELHI_WIND NEWDELHI_PRES NEWDELHI_CI NEWDELHI_DP NEWDELHI_POCI REUNION_LAT REUNION_LON REUNION_TYPE REUNION_WIND REUNION_PRES REUNION_TNUM REUNION_CI REUNION_RMW REUNION_R34_NE REUNION_R34_SE REUNION_R34_SW REUNION_R34_NW REUNION_R50_NE REUNION_R50_SE REUNION_R50_SW REUNION_R50_NW REUNION_R64_NE REUNION_R64_SE REUNION_R64_SW REUNION_R64_NW BOM_LAT BOM_LON BOM_TYPE BOM_WIND BOM_PRES BOM_TNUM BOM_CI BOM_RMW BOM_R34_NE BOM_R34_SE BOM_R34_SW BOM_R34_NW BOM_R50_NE BOM_R50_SE BOM_R50_SW BOM_R50_NW BOM_R64_NE BOM_R64_SE BOM_R64_SW BOM_R64_NW BOM_ROCI BOM_POCI BOM_EYE BOM_POS_METHOD BOM_PRES_METHOD NADI_LAT NADI_LON NADI_CAT NADI_WIND NADI_PRES WELLINGTON_LAT WELLINGTON_LON WELLINGTON_WIND WELLINGTON_PRES DS824_LAT DS824_LON DS824_STAGE DS824_WIND DS824_PRES TD9636_LAT TD9636_LON TD9636_STAGE TD9636_WIND TD9636_PRES TD9635_LAT TD9635_LON TD9635_WIND TD9635_PRES TD9635_ROCI NEUMANN_LAT NEUMANN_LON NEUMANN_CLASS NEUMANN_WIND NEUMANN_PRES MLC_LAT MLC_LON MLC_CLASS MLC_WIND MLC_PRES USA_GUST BOM_GUST BOM_GUST_PER REUNION_GUST REUNION_GUST_PER USA_SEAHGT USA_SEARAD_NE USA_SEARAD_SE USA_SEARAD_SW USA_SEARAD_NW STORM_SPEED STORM_DIR
1931192N16278 1931 20 NA CS NOT_NAMED 1931-07-11 06:00:00 TS 15.7000 -82.3000 30 hurdat_atl main 116 102 O_____________ hurdat_atl AL021931 15.7000 -82.3000 TD 30 -1 7 293
1931192N16278 1931 20 NA CS NOT_NAMED 1931-07-11 09:00:00 TS 15.8300 -82.6200 main 102 85 P_____________ AL021931 15.8300 -82.6200 TD 30 -1 7 294
1931192N16278 1931 20 NA CS NOT_NAMED 1931-07-11 12:00:00 TS 16.0000 -83.0000 30 hurdat_atl main 89 84 O_____________ hurdat_atl AL021931 16.0000 -83.0000 TD 30 -1 9 296
1931192N16278 1931 20 NA CS NOT_NAMED 1931-07-11 15:00:00 TS 16.2350 -83.4775 main 85 79 P_____________ AL021931 16.2350 -83.4775 TD 30 -1 11 298
1931192N16278 1931 20 NA CS NOT_NAMED 1931-07-11 18:00:00 TS 16.5000 -84.0000 30 hurdat_atl main 84 81 O_____________ hurdat_atl AL021931 16.5000 -84.0000 TD 30 -1 11 298
1931192N16278 1931 20 NA CS NOT_NAMED 1931-07-11 21:00:00 TS 16.7499 -84.5001 main 92 92 P_____________ AL021931 16.7499 -84.5001 TD 30 -1 11 298
1931192N16278 1931 20 NA CS NOT_NAMED 1931-07-12 00:00:00 TS 17.0000 -85.0000 30 hurdat_atl main 123 123 O_____________ hurdat_atl AL021931 17.0000 -85.0000 TD 30 -1 11 298
1931192N16278 1931 20 NA CS NOT_NAMED 1931-07-12 03:00:00 TS 17.2499 -85.5001 main 145 145 P_____________ AL021931 17.2499 -85.5001 TD 30 -1 11 298
1931192N16278 1931 20 NA CS NOT_NAMED 1931-07-12 06:00:00 TS 17.5000 -86.0000 30 hurdat_atl main 179 148 O_____________ hurdat_atl AL021931 17.5000 -86.0000 TD 30 -1 11 298
1931192N16278 1931 20 NA CS NOT_NAMED 1931-07-12 09:00:00 TS 17.7499 -86.5001 main 148 87 P_____________ AL021931 17.7499 -86.5001 TD 30 -1 11 298
1931192N16278 1931 20 NA CS NOT_NAMED 1931-07-12 12:00:00 TS 18.0000 -87.0000 30 hurdat_atl main 87 31 O_____________ hurdat_atl AL021931 18.0000 -87.0000 TD 30 -1 11 297
1931192N16278 1931 20 NA CS NOT_NAMED 1931-07-12 15:00:00 TS 18.2500 -87.5151 main 31 0 P_____________ AL021931 18.2500 -87.5151 TD 30 -1 11 298
1931192N16278 1931 20 NA CS NOT_NAMED 1931-07-12 18:00:00 TS 18.5000 -88.0000 30 hurdat_atl main 0 0 O_____________ hurdat_atl AL021931 18.5000 -88.0000 TD 30 -1 10 300
1931192N16278 1931 20 NA NA NOT_NAMED 1931-07-12 21:00:00 TS 18.7499 -88.4226 main 0 0 P_____________ AL021931 18.7499 -88.4226 TD 30 -1 9 303
1931192N16278 1931 20 NA NA NOT_NAMED 1931-07-13 00:00:00 TS 19.0000 -88.8000 30 hurdat_atl main 0 0 O_____________ hurdat_atl AL021931 19.0000 -88.8000 TD 30 -1 9 305
1931192N16278 1931 20 NA NA NOT_NAMED 1931-07-13 03:00:00 TS 19.2500 -89.1726 main 0 0 P_____________ AL021931 19.2500 -89.1726 TD 30 -1 8 307
1931192N16278 1931 20 NA NA NOT_NAMED 1931-07-13 06:00:00 TS 19.5000 -89.5000 30 hurdat_atl main 0 0 O_____________ hurdat_atl AL021931 19.5000 -89.5000 TD 30 -1 7 310
1931192N16278 1931 20 NA NA NOT_NAMED 1931-07-13 09:00:00 TS 19.7274 -89.7802 main 0 0 P_____________ AL021931 19.7274 -89.7802 TD 32 -1 7 317
1931192N16278 1931 20 NA NA NOT_NAMED 1931-07-13 12:00:00 TS 20.0000 -90.0000 35 hurdat_atl main 0 0 O_____________ hurdat_atl AL021931 20.0000 -90.0000 TS 35 0 7 329
1931192N16278 1931 20 NA NA NOT_NAMED 1931-07-13 15:00:00 TS 20.3475 -90.1800 main 0 0 P_____________ AL021931 20.3475 -90.1800 TS 37 0 9 341
1931192N16278 1931 20 NA NA NOT_NAMED 1931-07-13 18:00:00 TS 20.8000 -90.3000 40 hurdat_atl main 0 0 O_____________ hurdat_atl AL021931 20.8000 -90.3000 TS 40 0 10 350
1931192N16278 1931 20 NA GM NOT_NAMED 1931-07-13 21:00:00 TS 21.3475 -90.3652 main 24 24 P_____________ AL021931 21.3475 -90.3652 TS 42 0 12 355
1931192N16278 1931 20 NA GM NOT_NAMED 1931-07-14 00:00:00 TS 22.0000 -90.4000 45 hurdat_atl main 101 101 O_____________ hurdat_atl AL021931 22.0000 -90.4000 TS 45 0 14 357
1931192N16278 1931 20 NA GM NOT_NAMED 1931-07-14 03:00:00 TS 22.7425 -90.4500 main 178 178 P_____________ AL021931 22.7425 -90.4500 TS 47 0 15 357
1931192N16278 1931 20 NA GM NOT_NAMED 1931-07-14 06:00:00 TS 23.5000 -90.5000 50 hurdat_atl main 264 264 O_____________ hurdat_atl AL021931 23.5000 -90.5000 TS 50 0 14 357
1931192N16278 1931 20 NA GM NOT_NAMED 1931-07-14 09:00:00 TS 24.1725 -90.5501 main 342 342 P_____________ AL021931 24.1725 -90.5501 TS 52 0 13 356
1931192N16278 1931 20 NA GM NOT_NAMED 1931-07-14 12:00:00 TS 24.8000 -90.6000 55 hurdat_atl main 408 408 O_____________ hurdat_atl AL021931 24.8000 -90.6000 TS 55 0 12 356
1931192N16278 1931 20 NA GM NOT_NAMED 1931-07-14 15:00:00 TS 25.4075 -90.6501 main 413 346 P_____________ AL021931 25.4075 -90.6501 TS 57 0 12 356
1931192N16278 1931 20 NA GM NOT_NAMED 1931-07-14 18:00:00 TS 26.0000 -90.7000 60 hurdat_atl main 346 279 O_____________ hurdat_atl AL021931 26.0000 -90.7000 TS 60 0 12 356
1931192N16278 1931 20 NA GM NOT_NAMED 1931-07-14 21:00:00 TS 26.6000 -90.7501 main 279 212 P_____________ AL021931 26.6000 -90.7501 TS 60 0 12 356
1931192N16278 1931 20 NA GM NOT_NAMED 1931-07-15 00:00:00 TS 27.2000 -90.8000 60 hurdat_atl main 212 145 O_____________ hurdat_atl AL021931 27.2000 -90.8000 TS 60 0 12 356
1931192N16278 1931 20 NA GM NOT_NAMED 1931-07-15 03:00:00 TS 27.8000 -90.8456 main 145 78 P_____________ AL021931 27.8000 -90.8456 TS 57 0 12 356
1931192N16278 1931 20 NA GM NOT_NAMED 1931-07-15 06:00:00 TS 28.4000 -90.9000 55 hurdat_atl main 78 14 O_____________ hurdat_atl AL021931 28.4000 -90.9000 TS 55 0 12 355
1931192N16278 1931 20 NA GM NOT_NAMED 1931-07-15 09:00:00 TS 29.0000 -90.9641 main 14 0 P_____________ AL021931 29.0000 -90.9641 TS 51 0 12 354
1931192N16278 1931 20 NA GM NOT_NAMED 1931-07-15 10:00:00 TS 29.2000 -91.0000 50 hurdat_atl main 0 0 O_____________ hurdat_atl AL021931 29.2000 -91.0000 L TS 50 0 12 349
1931192N16278 1931 20 NA NA NOT_NAMED 1931-07-15 12:00:00 TS 29.6000 -91.1000 45 1000 hurdat_atl main 0 0 O_____________ hurdat_atl AL021931 29.6000 -91.1000 TS 45 1000 0 11 349
1931192N16278 1931 20 NA NA NOT_NAMED 1931-07-15 15:00:00 TS 30.0594 -91.1990 main 0 0 P_____________ AL021931 30.0594 -91.1990 TS 42 0 8 348
1931192N16278 1931 20 NA NA NOT_NAMED 1931-07-15 18:00:00 TS 30.4000 -91.3000 40 hurdat_atl main 0 0 O_____________ hurdat_atl AL021931 30.4000 -91.3000 TS 40 0 7 340
1931192N16278 1931 20 NA NA NOT_NAMED 1931-07-15 21:00:00 TS 30.7149 -91.4702 main 0 0 P_____________ AL021931 30.7149 -91.4702 TS 37 0 7 330
1931192N16278 1931 20 NA NA NOT_NAMED 1931-07-16 00:00:00 TS 31.0000 -91.7000 35 hurdat_atl main 0 0 O_____________ hurdat_atl AL021931 31.0000 -91.7000 TS 35 0 7 323
1931192N16278 1931 20 NA NA NOT_NAMED 1931-07-16 03:00:00 TS 31.3000 -91.9776 main 0 0 P_____________ AL021931 31.3000 -91.9776 TS 32 -1 8 319
1931192N16278 1931 20 NA NA NOT_NAMED 1931-07-16 06:00:00 TS 31.6000 -92.3000 30 hurdat_atl main 0 0 O_____________ hurdat_atl AL021931 31.6000 -92.3000 TD 30 -1 8 316
1931192N16278 1931 20 NA NA NOT_NAMED 1931-07-16 09:00:00 TS 31.8774 -92.6355 main 0 0 P_____________ AL021931 31.8774 -92.6355 TD 27 -1 8 315
1931192N16278 1931 20 NA NA NOT_NAMED 1931-07-16 12:00:00 TS 32.2000 -93.0000 25 hurdat_atl main 0 0 O_____________ hurdat_atl AL021931 32.2000 -93.0000 TD 25 -1 10 319
1931192N16278 1931 20 NA NA NOT_NAMED 1931-07-16 15:00:00 TS 32.6124 -93.3854 main 0 0 P_____________ AL021931 32.6124 -93.3854 TD 25 -1 11 323
1931192N16278 1931 20 NA NA NOT_NAMED 1931-07-16 18:00:00 TS 33.1000 -93.8000 25 hurdat_atl main 0 0 O_____________ hurdat_atl AL021931 33.1000 -93.8000 TD 25 -1 12 325
1931192N16278 1931 20 NA NA NOT_NAMED 1931-07-16 21:00:00 TS 33.6348 -94.2354 main 0 0 P_____________ AL021931 33.6348 -94.2354 TD 25 -1 13 326
1931192N16278 1931 20 NA NA NOT_NAMED 1931-07-17 00:00:00 TS 34.2000 -94.7000 25 hurdat_atl main 0 0 O_____________ hurdat_atl AL021931 34.2000 -94.7000 TD 25 -1 14 325
1931192N16278 1931 20 NA NA NOT_NAMED 1931-07-17 03:00:00 TS 34.7554 -95.1912 main 0 0 P_____________ AL021931 34.7554 -95.1912 TD 22 -1 14 323
1931192N16278 1931 20 NA NA NOT_NAMED 1931-07-17 06:00:00 TS 35.3000 -95.7000 20 hurdat_atl main 0 O_____________ hurdat_atl AL021931 35.3000 -95.7000 TD 20 -1 14 323

About IBTrACS Database

This database is a web-friendly format of International Best Track Archive for Climate Stewardship (IBTrACS), a global best track data archive curated by NOAA dating back to 1842.

Updated: 2021-12-08